• Join FlightAware (Why Join?)
  • Login
  • US Flag 
05:03AM EDT


 

Airport Tracker/Info


-or-


 

Live Flight TrackerFlight Track Log ✈ SWA127 ✈ 28-Apr-2013 ✈ KHOU - KHRL

Flight Track Log - Related Links

Times and Time Zones

All times are in EDT time to prevent confusion due to time zone crossing. See the SWA127 flight status page for this flight to view local times or setup timezone preferences in your user account.

Time Position Orientation Groundspeed Altitude Reporting Facility
EDT Latitude Longitude Course Direction KTS MPH feet Rate Location/Type
02:17PM 29.6333 -95.2678 158° South 146 168 700  Level Houston Center
02:18PM 29.5875 -95.2469 158° South 191 220 2,600 2,040 Climbing Houston Center
02:19PM 29.5592 -95.2353 160° South 213 245 4,000 2,640 Climbing Houston Center
02:20PM 29.4972 -95.2161 165° South 227 261 6,900 2,880 Climbing Houston Center
02:21PM 29.4256 -95.2508 203° Southwest 275 316 10,000 2,760 Climbing Houston Center
02:22PM 29.3439 -95.2936 205° Southwest 314 361 12,700 2,880 Climbing Houston Center
02:23PM 29.2583 -95.3461 208° Southwest 342 394 16,000 3,120 Climbing Houston Center
02:24PM 29.1628 -95.4369 220° Southwest 367 422 19,200 3,000 Climbing Houston Center
02:25PM 29.0839 -95.5142 221° Southwest 371 427 22,200 2,640 Climbing Houston Center
02:26PM 29.0036 -95.5914 220° Southwest 376 433 24,700 2,220 Climbing Houston Center
02:27PM 28.9247 -95.6700 221° Southwest 378 435 26,900 1,740 Climbing Houston Center
02:28PM 28.8419 -95.7519 221° Southwest 390 449 28,300 1,920 Climbing Houston Center
02:29PM 28.7406 -95.8511 221° Southwest 399 459 30,900 2,520 Climbing Houston Center
02:30PM 28.6608 -95.9286 220° Southwest 380 437 33,600 1,440 Climbing Houston Center
02:31PM 28.5911 -95.9958 220° Southwest 363 418 33,900 180 Climbing Houston Center
02:32PM 28.5153 -96.0692 220° Southwest 360 414 34,000  Climbing Houston Center
02:33PM 28.4233 -96.1569 220° Southwest 359 413 34,000  Level Houston Center
02:34PM 28.3481 -96.2308 221° Southwest 358 412 34,000  Level Houston Center
02:35PM 28.2728 -96.3047 221° Southwest 358 412 34,000  Level Houston Center
02:36PM 28.1969 -96.3761 220° Southwest 355 409 34,000 -60 Level Houston Center
02:37PM 28.1208 -96.4478 220° Southwest 355 409 33,900  Descending Houston Center
02:38PM 28.0464 -96.5206 221° Southwest 353 406 34,000  Climbing Houston Center
02:39PM 27.9550 -96.6058 220° Southwest 355 409 34,000  Level Houston Center
02:40PM 27.8792 -96.6794 221° Southwest 356 410 34,000  Level Houston Center
02:41PM 27.8031 -96.7536 221° Southwest 359 413 34,000  Level Houston Center
02:43PM 27.7250 -96.8256 219° Southwest 361 415 34,000  Level Houston Center
02:44PM 27.6489 -96.9000 221° Southwest 362 417 34,000 -240 Level Houston Center
02:45PM 27.5728 -96.9711 220° Southwest 359 413 33,600 -720 Descending Houston Center
02:46PM 27.4875 -97.0508 220° Southwest 340 391 32,500 -1,440 Descending Houston Center
02:47PM 27.4233 -97.1111 220° Southwest 335 386 30,700 -3,480 Descending Houston Center
02:48PM 27.3442 -97.1867 220° Southwest 363 418 25,400 -4,020 Descending Houston Center
02:49PM 27.2403 -97.2822 219° Southwest 398 458 22,500 -1,980 Descending Houston Center
02:50PM 27.1683 -97.3503 220° Southwest 356 410 21,400 -1,260 Descending Houston Center
02:51PM 27.0992 -97.4139 219° Southwest 310 357 19,900 -1,500 Descending Houston Center
02:52PM 27.0261 -97.4792 219° Southwest 318 366 18,300 -1,500 Descending Houston Center
02:52PM 26.9886 -97.5200 224° Southwest 324 373 17,500 -1,680 Descending Houston Center
02:53PM 26.9567 -97.5464 216° Southwest 319 367 16,600 -1,500 Descending Houston Center
02:53PM 26.9178 -97.5861 222° Southwest 317 365 16,000 -600 Descending Houston Center
02:54PM 26.8894 -97.6108 218° Southwest 313 360 16,000 -120 Level Houston Center
02:55PM 26.8469 -97.6497 219° Southwest 311 358 15,900 -780 Descending Houston Center
02:55PM 26.8169 -97.6775 220° Southwest 311 358 15,200 -2,520 Descending Houston Center
02:56PM 26.7742 -97.7156 218° Southwest 312 359 13,400 -2,280 Descending Houston Center
02:56PM 26.7472 -97.7381 217° Southwest 304 350 12,900 -1,620 Descending Houston Center
02:57PM 26.6906 -97.7408 183° South 319 367 11,800 -1,980 Descending Houston Center
02:57PM 26.6508 -97.7394 178° South 317 365 10,900 -1,620 Descending Houston Center
02:58PM 26.6042 -97.7408 182° South 314 361 10,200 -1,380 Descending Houston Center
02:58PM 26.5658 -97.7419 181° South 306 352 9,500 -1,620 Descending Houston Center
02:59PM 26.5222 -97.7422 180° South 284 327 8,600 -1,680 Descending Houston Center
02:59PM 26.4872 -97.7450 184° South 283 326 7,800 -1,680 Descending Houston Center
03:00PM 26.4431 -97.7481 184° South 280 322 6,900 -1,800 Descending Houston Center
03:00PM 26.4025 -97.7525 186° South 281 323 6,000 -1,920 Descending Houston Center
03:01PM 26.3658 -97.7561 185° South 279 321 5,000 -1,860 Descending Houston Center
03:01PM 26.3244 -97.7553 179° South 281 323 4,100 -1,620 Descending Houston Center
03:02PM 26.2881 -97.7547 179° South 278 320 3,400 -1,080 Descending Houston Center
03:02PM 26.2442 -97.7483 173° South 263 303 3,000 -600 Descending Houston Center
03:03PM 26.2192 -97.7406 164° South 236 272 2,800 -600 Descending Houston Center
03:03PM 26.1856 -97.7253 158° South 226 260 2,400 -900 Descending Houston Center
03:04PM 26.1756 -97.7092 125° Southeast 168 193 1,900 -1,020 Descending Houston Center
03:04PM 26.1742 -97.6794 93° East 157 181 1,400 -840 Descending Houston Center
03:05PM 26.1794 -97.6667 65° Northeast 111 128 1,100 -1,020 Descending Houston Center
03:05PM 26.2003 -97.6594 17° North 120 138 400 -1,080 Descending Houston Center